Werte bis 5 Uhr SommerzeitDiagramme Kirchhain: Tagesdaten MonatsdatenCSV-Datei: Kirchhain21.csv

Wetterdaten 2021 Station: Kirchhain
Temperaturen in °C relative Nieder- Global- Wind Wind Wind- Sonnen-
Datum Boden Boden Luft Luft Luft Luft Feuchte schlag strahlung max richtung schein
20 cm 5 cm 20 cm 2 m 2 m max 2 m min % mm W/m2*d m/s m/s ° h

28.10.2021 10,6 9,7 4,1 4,6 6,0 4,0 100 0,0 0 0,0 0,4 --- ---
27.10.2021 10,3 10,1 9,8 10,2 15,9 5,4 92 0,0 1184 0,3 3,7 --- 3,5
26.10.2021 9,9 9,5 10,4 10,7 15,7 6,4 87 0,0 1598 0,5 4,4 --- 5,4
25.10.2021 9,7 8,0 3,9 4,3 13,7 -2,0 92 0,3 2082 0,2 2,9 --- 6,0
24.10.2021 10,2 8,4 3,5 4,0 14,7 -1,5 86 0,0 2269 0,3 3,6 --- 6,1
23.10.2021 10,7 9,1 4,0 4,4 11,3 -0,1 92 0,1 1563 0,1 2,7 --- 5,1
22.10.2021 11,2 9,7 6,3 6,7 11,6 2,9 87 1,3 1092 1,0 7,4 --- 3,9
21.10.2021 11,8 11,6 10,8 11,1 15,9 4,2 84 8,9 1221 2,0 13,2 --- 3,9
20.10.2021 11,4 11,1 11,7 12,1 16,9 5,8 95 2,1 990 0,6 6,4 --- 2,6
19.10.2021 11,2 10,5 9,1 9,3 13,0 5,4 99 1,7 384 0,2 2,4 --- ---
18.10.2021 11,3 10,0 5,7 5,9 10,5 1,8 96 0,0 890 0,2 3,2 --- 2,4
17.10.2021 11,5 10,3 6,8 7,0 14,3 2,2 87 0,0 2359 0,3 2,2 --- 6,5
16.10.2021 11,8 10,4 5,6 5,8 13,8 1,4 90 0,0 2325 0,2 2,0 --- 6,1
15.10.2021 12,2 11,5 8,8 9,1 13,0 4,0 92 0,0 716 0,5 5,6 --- 1,8
14.10.2021 12,1 11,4 10,1 10,3 12,4 8,3 94 0,1 629 0,6 3,5 --- 0,6
13.10.2021 12,0 10,7 6,5 6,7 13,5 1,7 93 0,2 1917 0,3 4,7 --- 6,3
12.10.2021 12,3 11,3 8,0 8,3 12,6 3,0 95 3,5 878 0,4 4,8 --- 1,8
11.10.2021 12,3 11,0 7,2 7,5 15,3 1,5 89 0,0 1701 0,3 3,0 --- 5,4
10.10.2021 12,7 10,9 5,1 5,6 15,0 -0,9 86 0,0 2660 0,2 2,1 --- 6,6
09.10.2021 13,3 11,9 7,6 8,2 16,5 1,7 83 0,0 2983 0,4 4,4 --- 6,4
08.10.2021 13,8 12,6 8,9 9,4 16,3 3,1 90 0,0 2293 0,4 3,9 --- 6,4
07.10.2021 14,2 13,7 11,3 11,5 17,3 7,0 88 0,3 2069 0,3 2,5 --- 5,6
06.10.2021 14,3 13,6 11,1 11,4 14,9 9,6 86 0,7 1609 1,0 7,4 --- 4,0
05.10.2021 14,5 13,9 11,7 11,8 16,9 8,9 92 4,3 1474 0,5 5,1 --- 5,7
04.10.2021 14,8 14,5 12,1 12,4 15,9 8,9 90 0,1 1437 0,3 4,5 --- 5,7
03.10.2021 14,7 15,0 17,8 18,1 22,5 13,0 70 1,6 842 1,0 8,5 --- 2,0
02.10.2021 14,3 13,9 13,7 14,0 20,5 8,2 80 0,8 1942 0,5 6,4 --- 5,9
01.10.2021 14,3 13,1 10,0 10,6 19,0 3,4 81 0,0 3132 0,4 5,5 --- 6,6
30.09.2021 14,8 13,5 9,6 10,0 16,8 5,4 80 0,0 2844 0,6 5,4 --- 6,3
29.09.2021 15,5 14,6 10,2 10,5 17,3 6,5 89 5,1 1909 0,5 8,3 --- 5,7
28.09.2021 15,9 15,7 12,4 12,6 18,5 9,2 86 0,4 3137 0,3 2,3 --- 7,9
27.09.2021 15,9 16,3 16,7 16,9 21,6 12,8 90 1,6 1657 0,5 6,4 --- 5,3
26.09.2021 15,7 15,8 16,3 16,6 23,6 10,8 90 0,4 1918 0,3 4,7 --- 4,6
25.09.2021 15,7 15,7 14,6 15,1 23,3 8,5 84 0,0 3545 0,3 3,2 --- 7,1
24.09.2021 15,6 15,8 16,7 16,9 21,9 13,0 81 0,1 1535 0,6 4,4 --- 5,9
23.09.2021 15,3 14,7 13,4 13,7 22,9 5,0 77 0,0 3623 0,7 7,6 --- 7,5
22.09.2021 15,3 14,6 10,9 11,2 20,9 4,7 85 0,0 3499 0,3 2,7 --- 8,1
21.09.2021 15,6 14,5 9,6 9,9 17,4 3,5 82 0,0 2545 0,2 2,8 --- 7,5
20.09.2021 16,1 15,0 11,4 11,5 16,8 6,7 72 0,0 1997 0,7 3,6 --- 7,5
19.09.2021 16,6 15,7 12,5 12,7 15,3 9,1 81 0,0 1453 0,8 4,4 --- 6,0
18.09.2021 17,0 16,9 14,5 14,6 21,4 10,5 84 0,0 3373 0,5 3,6 --- 8,6
17.09.2021 17,1 16,7 13,5 13,8 20,4 8,5 90 0,0 2216 0,3 2,3 --- 7,4
16.09.2021 17,6 17,7 15,7 15,9 18,9 11,9 86 0,0 1778 0,4 3,2 --- 5,5
15.09.2021 17,6 18,2 18,4 18,5 21,8 16,1 95 4,6 1355 0,3 3,5 --- 5,1
14.09.2021 17,3 17,6 16,9 17,2 26,3 9,8 83 0,0 3667 0,3 3,0 --- 7,7
13.09.2021 17,5 17,3 14,7 15,1 22,8 8,8 82 0,0 3514 0,3 2,8 --- 8,9
12.09.2021 17,7 18,1 16,8 17,1 24,0 11,9 80 0,0 4044 0,4 4,6 --- 9,0
11.09.2021 17,7 18,4 18,1 18,4 24,3 13,0 87 0,4 3063 0,4 3,6 --- 7,2
10.09.2021 17,7 18,5 19,3 19,6 24,0 17,1 89 4,0 1755 0,3 4,5 --- 6,8
09.09.2021 17,2 17,8 18,3 18,7 28,6 10,1 80 0,0 3924 0,4 4,4 --- 7,2
08.09.2021 17,1 17,5 16,9 17,5 27,1 10,1 78 0,0 4048 0,3 3,4 --- 7,7
07.09.2021 17,2 17,6 16,9 17,4 24,5 11,5 74 0,0 3593 0,3 2,9 --- 8,4
06.09.2021 17,0 17,4 16,6 17,2 27,0 8,8 77 0,0 3982 0,3 3,6 --- 7,2
05.09.2021 17,0 17,3 15,6 16,1 24,8 8,2 79 0,0 4487 0,4 3,0 --- 7,9
04.09.2021 17,0 17,3 15,8 16,3 24,8 8,8 81 0,0 4583 0,4 3,6 --- 8,1
03.09.2021 16,7 17,0 15,6 16,1 25,6 8,2 79 0,0 4547 0,2 2,8 --- 8,0
02.09.2021 16,7 16,4 13,9 14,4 23,5 6,5 82 0,0 3845 0,4 3,6 --- 8,0
01.09.2021 17,0 16,7 13,2 13,5 20,3 7,9 85 0,0 3147 0,3 3,1 --- 9,0
31.08.2021 17,0 17,0 15,0 15,4 21,4 9,6 81 0,0 3390 0,4 4,0 --- 9,9
30.08.2021 17,1 17,1 16,5 16,7 19,5 12,8 83 0,0 1939 0,9 4,8 --- 7,0
29.08.2021 17,1 16,9 15,0 15,1 17,5 13,6 93 7,8 1369 0,5 4,4 --- 3,8
28.08.2021 17,1 16,7 13,7 13,9 19,1 9,5 88 4,3 2485 0,3 3,1 --- 7,2
27.08.2021 17,5 17,1 13,6 13,8 18,5 10,2 88 1,2 2164 0,5 5,5 --- 7,5
26.08.2021 17,6 17,8 15,8 15,9 21,8 12,9 77 1,7 3923 0,6 6,8 --- 8,5
25.08.2021 17,4 17,2 14,8 15,2 24,4 6,8 73 0,0 4597 0,3 4,0 --- 7,5
24.08.2021 17,8 17,2 14,1 14,5 21,3 7,7 77 0,0 3897 0,6 5,1 --- 9,2
23.08.2021 18,2 18,2 15,7 16,0 21,1 12,5 88 0,0 2718 0,5 4,9 --- 7,8
22.08.2021 18,3 18,8 17,1 17,4 23,0 14,2 92 14,6 2751 0,4 5,0 --- 7,1
21.08.2021 18,1 18,7 18,4 18,7 26,4 12,2 79 0,0 4019 0,3 2,7 --- 9,4
20.08.2021 17,8 18,2 17,4 17,7 24,0 14,0 80 0,1 4164 0,4 3,6 --- 9,1
19.08.2021 17,7 17,8 17,2 17,4 21,3 14,9 87 0,1 1894 0,6 3,9 --- 6,4
18.08.2021 17,7 17,3 15,5 15,6 18,9 12,8 91 2,4 1962 0,7 4,3 --- 6,5
17.08.2021 18,1 17,3 13,5 13,7 17,5 10,7 83 2,8 1821 1,0 5,7 --- 5,9
16.08.2021 19,0 18,9 15,7 16,0 22,1 10,9 81 2,2 1841 0,8 7,5 --- 6,2
15.08.2021 19,1 19,8 18,7 19,3 27,9 11,1 74 0,0 4935 0,4 4,6 --- 9,1
14.08.2021 19,0 19,8 19,9 20,4 29,7 11,9 72 0,0 5712 0,5 6,0 --- 9,1
13.08.2021 18,8 19,8 20,6 21,1 30,4 13,7 78 0,0 4736 0,4 4,5 --- 9,6
12.08.2021 18,6 19,3 19,2 19,7 28,0 12,3 79 0,0 4519 0,3 2,9 --- 10,4
11.08.2021 18,2 19,1 18,0 18,2 25,8 13,7 83 0,1 4798 0,3 2,6 --- 9,7
10.08.2021 17,9 18,0 15,4 15,7 24,0 10,2 89 9,5 4352 0,4 4,9 --- 7,8
09.08.2021 18,1 17,8 15,8 16,2 23,3 10,1 80 0,1 3975 0,5 5,2 --- 9,5
08.08.2021 18,4 18,4 15,7 16,0 22,0 11,6 82 1,0 4322 1,0 8,1 --- 9,7
07.08.2021 18,6 18,8 17,1 17,4 23,6 12,0 81 5,0 3397 0,7 6,6 --- 10,3
06.08.2021 18,8 19,3 17,8 18,0 23,8 13,4 83 0,8 4111 0,8 7,0 --- 8,9
05.08.2021 18,6 19,4 17,4 17,7 25,0 13,1 80 3,5 4950 0,4 4,0 --- 9,8
04.08.2021 18,3 18,9 17,4 17,6 24,4 13,3 78 0,0 5267 0,5 4,4 --- 11,0
03.08.2021 18,4 18,3 14,4 14,5 19,5 10,5 93 5,8 2486 0,3 2,6 --- 6,8
02.08.2021 18,5 18,7 16,3 16,4 22,5 13,4 85 7,7 3672 0,5 3,9 --- 8,8
01.08.2021 18,5 18,6 17,0 17,3 24,5 12,3 74 0,0 5000 0,7 5,6 --- 11,4
31.07.2021 18,7 18,8 17,6 18,2 23,3 13,6 66 0,0 4202 1,1 8,2 --- 10,7
30.07.2021 18,7 19,0 18,2 18,8 27,3 9,9 70 0,0 6141 0,7 6,0 --- 10,5
29.07.2021 18,8 19,0 18,7 18,3 23,3 13,3 70 0,0 5469 1,4 7,6 --- 11,1
28.07.2021 19,0 19,3 18,9 18,5 24,6 12,3 82 7,5 4989 0,9 8,0 --- 9,9
27.07.2021 19,1 19,6 19,1 18,2 24,5 13,2 87 29,3 4643 0,7 6,7 --- 8,7
26.07.2021 19,1 19,8 20,8 19,7 27,0 13,6 82 5,9 4965 0,7 6,6 --- 10,0
25.07.2021 18,8 19,6 20,7 19,3 27,8 13,2 85 3,6 5549 0,7 4,0 --- 10,4
24.07.2021 18,7 19,3 19,3 19,3 25,6 14,6 83 1,1 3354 0,7 5,0 --- 9,4
23.07.2021 18,4 19,0 20,2 19,6 27,7 11,3 75 0,0 6296 0,4 3,8 --- 11,3
22.07.2021 18,4 19,1 19,1 18,5 24,9 11,4 76 0,0 4652 0,2 3,3 --- 12,1
21.07.2021 18,4 18,7 18,6 17,5 24,2 9,4 72 0,0 5392 0,6 5,5 --- 11,5
20.07.2021 18,8 19,1 16,5 16,7 23,1 10,0 70 0,0 6437 0,6 4,4 --- 11,1
19.07.2021 19,0 19,6 17,9 18,0 22,6 14,0 74 0,0 5308 0,7 5,0 --- 10,6
18.07.2021 18,8 19,7 20,3 20,7 27,9 12,6 71 0,0 7036 0,6 4,9 --- 11,3
17.07.2021 18,6 19,6 21,0 21,1 26,7 16,7 71 0,0 6167 0,8 6,4 --- 12,3
16.07.2021 18,5 19,1 18,9 18,9 23,2 15,7 84 0,1 3143 0,6 4,8 --- 9,8
15.07.2021 18,3 18,8 18,2 18,5 25,2 15,2 82 1,9 4554 0,4 4,3 --- 9,5
14.07.2021 18,5 18,8 16,3 16,6 17,4 15,7 96 11,9 1061 0,6 4,2 --- 1,5
13.07.2021 18,6 19,4 18,9 18,9 23,9 16,8 91 7,9 2664 0,4 3,6 --- 8,0
12.07.2021 18,3 19,1 18,8 19,1 26,1 13,6 80 0,1 5206 0,4 4,5 --- 10,4
11.07.2021 18,3 18,9 17,0 17,3 20,4 13,8 91 8,1 2556 0,3 4,4 --- 8,9
10.07.2021 18,1 18,7 18,1 18,4 25,4 12,6 80 0,0 5214 0,4 3,6 --- 10,9
09.07.2021 18,2 18,6 16,5 16,6 21,3 14,0 93 4,0 1989 0,3 4,3 --- 5,5
08.07.2021 18,3 19,0 17,5 17,7 24,4 13,3 86 5,6 3694 0,4 3,6 --- 8,5
07.07.2021 18,2 18,9 18,6 19,0 25,7 13,6 74 0,0 5810 0,5 4,1 --- 11,1
06.07.2021 18,2 18,7 17,6 18,0 21,0 14,8 89 6,5 2515 0,6 6,3 --- 8,8
05.07.2021 18,3 18,8 17,1 17,3 20,9 12,7 90 6,7 2641 0,5 4,0 --- 7,3
04.07.2021 18,5 19,5 18,0 18,2 26,5 15,5 84 6,4 3823 0,3 8,6 --- 6,6
03.07.2021 18,1 18,8 18,1 18,6 27,0 9,1 69 0,0 7130 0,4 3,5 --- 12,4
02.07.2021 17,9 18,1 16,3 16,4 22,9 12,3 76 3,5 5726 0,6 4,6 --- 10,9
01.07.2021 18,5 18,2 14,0 14,1 15,2 12,8 92 3,2 1174 0,8 5,2 --- 2,7
30.06.2021 19,1 19,7 17,2 17,3 21,4 14,7 84 5,1 3651 0,8 5,8 --- 10,7
29.06.2021 19,1 20,7 19,9 19,9 27,3 16,1 84 9,6 5076 0,6 6,2 --- 10,0
28.06.2021 18,8 20,4 22,2 22,4 30,4 16,7 71 0,6 5079 0,5 4,9 --- 11,5
27.06.2021 18,5 19,6 20,9 21,1 28,0 12,9 67 0,0 5692 0,6 4,6 --- 10,9
26.06.2021 18,1 19,0 18,7 18,9 27,4 10,8 72 0,0 7336 0,5 4,1 --- 12,9
25.06.2021 18,0 18,8 18,1 18,4 23,1 13,5 77 0,1 4540 0,5 4,0 --- 12,2
24.06.2021 18,2 18,6 17,2 17,2 21,1 13,7 85 2,2 3031 0,5 3,4 --- 9,2
23.06.2021 18,3 18,7 17,6 17,6 22,8 12,5 81 0,0 4364 0,6 4,1 --- 10,9
22.06.2021 18,8 19,0 15,4 15,4 20,5 12,5 81 3,4 3124 0,8 4,9 --- 6,8
21.06.2021 19,2 20,7 20,3 20,3 26,4 15,5 77 8,0 5769 1,1 7,7 --- 11,1
20.06.2021 19,2 21,2 23,7 24,0 29,3 19,8 67 2,8 5662 0,8 7,3 --- 12,1
19.06.2021 18,9 21,3 25,4 25,7 32,4 19,0 65 0,3 7265 0,6 4,9 --- 11,2
18.06.2021 18,4 20,8 25,3 25,6 34,7 16,8 64 0,0 6735 0,4 3,9 --- 11,3
17.06.2021 17,8 20,1 24,8 25,2 34,3 15,1 62 0,0 7385 0,5 5,4 --- 11,9
16.06.2021 17,2 19,1 22,5 22,8 31,6 14,4 65 0,0 6568 0,4 3,5 --- 12,4
15.06.2021 16,9 18,2 19,7 20,0 28,1 11,6 71 0,2 6364 0,5 4,0 --- 12,4
14.06.2021 16,6 17,7 18,0 18,6 27,5 8,7 65 0,0 7729 0,4 4,1 --- 11,5
13.06.2021 16,6 17,4 15,9 16,2 23,8 9,4 63 0,0 7782 0,6 4,0 --- 11,9
12.06.2021 17,0 18,1 18,6 19,0 24,7 13,5 72 0,0 4479 0,6 5,8 --- 11,0
11.06.2021 16,9 18,4 20,3 20,8 28,9 12,6 70 0,0 6296 0,3 3,2 --- 11,7
10.06.2021 16,7 18,3 19,5 19,8 26,9 13,3 76 0,0 5943 0,5 4,1 --- 12,6
09.06.2021 16,2 18,1 19,7 19,9 28,7 15,2 79 9,7 6787 0,4 6,3 --- 11,2
08.06.2021 15,8 17,3 19,1 19,2 24,0 15,5 76 0,0 4690 0,5 4,1 --- 11,0
07.06.2021 15,7 16,8 17,4 17,5 21,4 15,1 82 0,7 2678 0,5 4,6 --- 7,4
06.06.2021 15,8 17,1 17,2 17,2 19,4 15,3 87 1,2 2127 0,6 3,9 --- 7,0
05.06.2021 15,5 17,6 19,8 19,8 26,3 16,0 83 13,1 5870 0,6 5,3 --- 11,5
04.06.2021 14,8 17,2 19,8 19,9 28,5 15,9 82 0,2 5574 0,4 5,6 --- 9,5
03.06.2021 14,2 15,9 18,9 19,1 30,1 10,0 71 3,5 5652 0,5 5,0 --- 9,1
02.06.2021 13,6 15,3 18,5 18,9 27,9 9,2 59 0,0 7563 0,5 4,2 --- 11,8
01.06.2021 13,3 14,3 16,3 16,5 24,9 6,2 57 0,0 7313 0,7 5,2 --- 11,9
31.05.2021 13,0 14,1 15,4 15,6 23,2 7,1 61 0,0 7700 0,7 5,9 --- 11,9
30.05.2021 12,7 13,5 13,5 13,8 21,7 4,2 67 0,0 6893 0,8 5,9 --- 11,6
29.05.2021 12,5 13,3 12,5 12,8 19,2 5,6 72 0,0 6109 0,8 6,1 --- 12,3
28.05.2021 12,1 12,8 13,2 13,3 20,4 8,3 67 0,1 5353 0,6 4,8 --- 11,7
27.05.2021 12,1 12,1 10,4 10,6 13,5 8,4 84 0,5 1895 1,0 6,3 --- 6,4
26.05.2021 12,2 12,3 9,7 9,7 14,7 7,4 89 6,9 3089 0,8 5,3 --- 9,4
25.05.2021 12,4 12,6 9,3 9,4 14,0 7,8 86 6,0 3386 1,3 9,0 --- 9,2
24.05.2021 12,3 12,9 11,8 12,1 21,0 3,4 74 0,7 5297 0,8 7,9 --- 8,8
23.05.2021 12,3 12,6 10,9 11,2 17,4 6,1 73 0,2 4363 1,0 7,1 --- 9,6
22.05.2021 12,5 12,9 10,9 10,9 17,5 7,7 81 4,0 3857 1,5 9,8 --- 9,1
21.05.2021 12,5 13,5 14,3 14,5 19,0 11,0 58 0,1 6147 1,6 11,1 --- 11,7
20.05.2021 12,1 13,1 12,7 12,8 18,8 8,4 72 0,8 5058 0,7 7,0 --- 10,2
19.05.2021 11,8 12,3 9,7 9,7 18,6 3,6 82 1,0 4241 0,5 7,8 --- 8,5
18.05.2021 11,8 12,4 10,3 10,4 16,0 5,5 86 4,9 4010 0,7 6,7 --- 9,8
17.05.2021 11,7 12,2 10,9 11,0 16,5 7,4 88 4,1 3881 0,9 7,1 --- 9,5
16.05.2021 11,7 12,3 10,7 10,8 17,9 7,5 86 24,9 4065 0,7 7,8 --- 7,9
15.05.2021 11,7 12,3 10,8 11,0 17,1 6,4 85 1,7 3468 0,8 6,8 --- 8,2
14.05.2021 11,7 12,8 13,4 13,6 19,9 8,0 70 0,3 4495 0,7 5,0 --- 11,0
13.05.2021 11,5 12,6 13,2 13,4 19,9 8,2 74 0,0 4153 0,5 5,4 --- 9,3
12.05.2021 11,4 12,6 13,8 14,0 17,2 11,1 72 0,1 3614 0,6 4,5 --- 11,2
11.05.2021 11,3 12,6 14,1 14,1 17,6 11,7 92 4,7 1856 0,4 3,3 --- 6,5
10.05.2021 11,0 12,9 16,6 17,1 23,6 13,2 72 4,4 2758 0,8 7,1 --- 7,8
09.05.2021 9,9 11,8 17,7 18,3 29,3 5,6 56 0,0 6769 0,9 8,0 --- 11,4
08.05.2021 9,1 9,3 8,7 9,1 17,4 -1,2 64 0,0 4743 0,8 6,6 --- 11,1
07.05.2021 9,1 9,1 6,6 6,8 12,6 2,5 75 0,9 4028 0,8 6,5 --- 9,9
06.05.2021 9,0 8,9 6,7 6,8 13,7 2,0 80 5,6 3620 0,9 5,9 --- 9,2
05.05.2021 9,2 8,7 5,5 5,7 11,0 2,0 83 9,7 3649 1,1 10,4 --- 8,1
04.05.2021 9,5 9,5 9,5 9,8 13,3 6,4 68 2,6 1924 2,1 12,8 --- 5,8
03.05.2021 9,5 9,5 7,7 8,0 15,2 -1,1 61 0,0 5406 0,9 6,4 --- 10,4
02.05.2021 9,9 9,9 7,7 8,0 12,5 3,2 62 0,0 2515 0,7 4,7 --- 8,9
01.05.2021 9,8 10,7 10,2 10,3 15,0 6,1 65 0,0 3967 0,6 3,9 --- 11,0
30.04.2021 9,7 10,2 8,4 8,3 12,8 4,6 73 0,0 2855 0,7 3,5 --- 9,1
29.04.2021 9,7 10,8 10,8 10,8 17,0 5,4 75 4,5 5068 1,4 8,4 --- 8,4
28.04.2021 9,2 10,1 11,4 11,5 22,7 0,3 57 5,2 5451 0,8 5,9 --- 9,6
27.04.2021 9,0 9,6 9,1 9,1 16,0 -0,1 43 0,0 6444 1,2 6,2 --- 10,1
26.04.2021 9,1 9,3 6,9 6,8 14,4 -2,0 48 0,0 6536 1,1 5,8 --- 10,5
25.04.2021 9,1 9,6 6,9 6,8 13,2 0,4 55 0,0 6512 1,1 6,7 --- 10,5
24.04.2021 9,0 9,6 7,6 7,6 14,6 -0,3 62 0,0 5552 0,7 5,1 --- 10,4
23.04.2021 8,8 9,5 7,2 7,1 16,1 -0,8 66 0,0 6340 0,8 4,4 --- 11,5
22.04.2021 8,8 9,5 7,3 7,3 14,0 0,7 60 0,0 5978 0,9 5,4 --- 10,0
21.04.2021 8,6 9,8 10,3 10,5 18,4 4,9 77 2,8 3632 0,6 6,6 --- 7,9
20.04.2021 8,0 8,9 9,3 9,5 19,1 0,5 73 0,0 5671 0,5 4,3 --- 9,0
19.04.2021 7,7 8,6 8,2 8,3 14,0 3,5 83 0,2 3500 0,7 5,2 --- 9,5
18.04.2021 7,2 7,8 8,2 8,0 14,5 5,1 86 12,3 2554 0,4 4,2 --- 6,2
17.04.2021 6,9 6,9 6,2 6,4 9,5 0,4 63 0,0 2318 0,6 4,7 --- 7,9
16.04.2021 6,8 6,8 6,2 6,2 10,2 1,2 60 0,0 2616 0,8 6,0 --- 8,2
15.04.2021 6,8 6,3 2,9 3,1 9,6 -3,0 76 0,1 2965 0,7 5,9 --- 8,1
14.04.2021 6,9 6,7 3,1 3,1 9,3 -2,0 76 0,1 4188 0,7 6,7 --- 7,8
13.04.2021 7,0 6,5 2,5 2,7 10,3 -3,4 77 0,0 3561 0,5 5,3 --- 8,7
12.04.2021 7,3 7,1 3,7 3,8 8,6 -0,6 77 0,3 3349 0,6 5,9 --- 8,4
11.04.2021 7,4 7,9 7,2 7,3 13,2 2,3 93 11,5 999 0,5 4,6 --- 2,3
10.04.2021 7,1 7,6 7,8 7,8 9,4 5,9 93 11,8 1292 0,5 4,5 --- 5,2
09.04.2021 6,5 6,5 6,4 6,8 16,4 -1,5 61 0,0 4662 0,7 6,1 --- 9,4
08.04.2021 6,4 5,7 3,2 3,4 8,8 -0,3 68 0,1 2987 0,9 7,0 --- 9,7
07.04.2021 6,7 5,6 1,5 1,6 5,1 -0,8 82 1,1 1294 1,4 7,1 --- 4,1
06.04.2021 7,1 6,1 1,7 1,8 7,2 -1,0 76 0,6 3646 1,3 7,6 --- 7,8
05.04.2021 7,7 6,9 2,6 2,7 5,2 -1,0 78 3,8 2035 1,4 8,5 --- 4,8
04.04.2021 7,9 8,0 5,0 4,9 11,8 -0,5 70 0,0 3933 0,6 3,5 --- 9,8
03.04.2021 8,2 8,5 6,3 6,4 12,1 1,4 65 0,0 4446 1,0 6,2 --- 8,3
02.04.2021 8,4 9,2 8,0 7,7 13,0 5,3 64 0,0 3733 1,2 7,1 --- 8,5
01.04.2021 8,1 9,5 12,3 12,6 24,7 4,8 65 0,0 4585 0,9 7,5 --- 9,1
31.03.2021 7,7 8,9 11,9 12,6 25,5 1,5 61 0,0 4620 0,4 3,9 --- 8,1
30.03.2021 7,3 8,4 10,4 11,1 24,0 0,4 61 0,0 4740 0,3 2,9 --- 8,2
29.03.2021 6,8 8,1 12,4 12,9 22,3 5,5 55 0,0 4669 0,9 6,7 --- 8,9
28.03.2021 6,4 6,5 7,4 7,8 14,9 0,0 70 0,0 3024 0,9 7,6 --- 8,0
27.03.2021 6,8 7,1 6,1 6,5 11,2 2,2 75 2,9 2469 1,3 11,0 --- 6,4
26.03.2021 6,5 7,8 10,7 11,0 17,0 5,8 69 0,0 3636 0,8 5,8 --- 8,8
25.03.2021 5,8 6,5 7,3 7,6 16,9 -0,6 76 0,0 3194 0,3 3,0 --- 8,2
24.03.2021 5,6 5,8 5,4 5,8 15,8 -2,4 78 0,0 4270 0,6 5,3 --- 7,7
23.03.2021 5,5 5,9 5,9 6,2 11,3 0,8 75 0,0 2009 0,4 3,3 --- 6,3
22.03.2021 5,3 5,4 5,1 5,2 8,1 3,3 77 0,2 1569 0,7 5,3 --- 4,8
21.03.2021 5,1 5,2 5,5 5,5 9,1 3,0 68 0,0 2365 1,1 7,8 --- 7,6
20.03.2021 4,8 4,5 2,3 2,3 7,2 -2,6 52 0,0 3918 0,7 4,2 --- 7,3
19.03.2021 4,9 4,6 2,2 2,4 7,2 0,1 79 1,6 2911 1,0 10,5 --- 6,9
18.03.2021 4,9 4,3 1,3 1,4 8,7 -3,8 82 2,0 2876 0,5 5,8 --- 7,1
17.03.2021 5,2 4,8 1,5 1,8 5,6 -2,5 82 0,4 1359 0,6 4,7 --- 5,0
16.03.2021 5,3 5,3 4,9 5,1 9,8 2,1 74 0,0 2343 0,7 5,8 --- 6,7
15.03.2021 5,2 5,2 4,7 4,9 9,8 2,7 85 1,8 2392 1,1 7,4 --- 7,0
14.03.2021 5,2 5,1 4,2 4,3 7,9 2,2 84 0,6 1843 1,1 6,0 --- 6,5
13.03.2021 5,2 5,4 5,5 5,8 9,4 2,6 85 11,6 1576 2,1 11,9 --- 4,4
12.03.2021 5,0 5,5 6,7 6,8 11,5 3,8 73 3,6 3032 2,2 10,6 --- 7,1
11.03.2021 4,6 5,3 8,5 8,7 13,9 5,5 76 3,5 1883 2,2 9,4 --- 4,9
10.03.2021 4,0 4,2 5,5 5,7 9,1 2,1 80 0,0 1787 0,8 6,2 --- 5,8
09.03.2021 3,8 3,5 2,2 2,4 5,0 -0,5 92 0,6 1119 0,5 4,7 --- 3,9
08.03.2021 3,7 3,1 1,4 1,5 6,2 -2,6 82 0,0 1424 0,3 2,7 --- 5,3
07.03.2021 3,8 2,8 -0,4 0,0 8,7 -6,4 77 0,0 3311 0,5 6,9 --- 6,7
06.03.2021 4,3 3,3 -0,7 -0,3 6,8 -6,2 76 0,0 3253 0,4 4,5 --- 6,8
05.03.2021 4,7 4,7 2,6 2,7 6,3 -2,5 73 0,1 2487 1,0 6,5 --- 6,5
04.03.2021 4,6 4,8 5,0 5,2 10,7 1,9 93 4,6 1026 0,4 5,6 --- 2,9
03.03.2021 4,4 4,3 3,8 4,3 14,7 -2,2 86 0,0 2555 0,3 3,7 --- 7,3
02.03.2021 4,3 4,4 4,1 4,4 14,8 -1,1 84 0,0 3148 0,5 3,0 --- 7,5
01.03.2021 4,2 4,2 3,4 3,6 10,7 -1,4 91 0,0 2263 0,6 3,7 --- 6,2
28.02.2021 4,2 4,3 5,0 5,4 11,5 -0,4 81 0,0 2853 0,6 4,1 --- 6,1
27.02.2021 4,1 3,8 1,9 2,1 8,0 -3,1 91 0,1 1779 0,6 5,0 --- 5,6
26.02.2021 4,3 4,5 4,3 4,6 8,4 1,0 95 6,8 854 0,4 6,2 --- 3,2
25.02.2021 4,1 4,7 7,5 8,3 19,1 0,6 83 0,0 2436 0,4 3,8 --- 5,9
24.02.2021 3,7 4,4 7,5 8,3 18,7 1,5 86 0,0 2302 0,3 2,9 --- 6,0
23.02.2021 3,1 3,7 7,3 7,8 17,7 1,7 85 0,0 2253 0,3 3,1 --- 6,2
22.02.2021 2,8 2,6 2,8 3,6 12,3 -2,7 90 0,0 1954 0,3 2,7 --- 5,2
21.02.2021 2,8 2,9 5,1 6,0 18,1 -1,2 82 0,0 2434 0,4 5,8 --- 5,8
20.02.2021 2,4 2,5 5,0 5,7 16,8 -0,8 86 0,0 2136 0,4 4,8 --- 5,4
19.02.2021 2,0 1,9 4,4 5,1 10,6 0,1 87 0,1 1780 0,6 8,4 --- 5,0
18.02.2021 1,9 1,2 2,4 3,0 10,1 -1,9 90 0,2 1334 0,3 4,3 --- 4,9
17.02.2021 1,9 1,1 4,3 5,1 9,7 0,3 93 2,7 1595 0,6 5,4 --- 4,9
16.02.2021 1,9 0,9 2,0 2,5 7,9 -0,5 91 8,8 1680 0,2 1,7 --- 5,0
15.02.2021 2,0 0,7 -4,1 -3,8 1,2 -10,7 83 1,2 774 0,4 4,6 --- 2,3
14.02.2021 2,2 0,7 -10,7 -10,0 -0,6 -17,5 81 3,4 2262 0,3 1,8 --- 5,4
13.02.2021 2,4 0,9 -10,6 -9,8 -2,3 -16,6 82 1,2 2110 0,5 4,3 --- 5,4
12.02.2021 2,7 1,3 -9,6 -9,2 -3,4 -15,0 82 0,1 2231 1,0 5,8 --- 5,3
11.02.2021 3,0 1,8 -6,2 -5,6 -0,6 -10,8 82 4,6 1806 0,5 3,7 --- 3,7
10.02.2021 3,3 1,9 -11,0 -10,5 -4,4 -17,7 84 0,0 1919 0,6 8,6 --- 5,0
09.02.2021 3,5 2,3 -10,7 -10,4 -7,0 -14,9 81 0,0 1160 0,6 2,5 --- 3,9
08.02.2021 3,6 2,1 -7,2 -7,2 -5,7 -9,0 83 0,0 1051 1,5 5,3 --- 3,9
07.02.2021 4,1 2,8 -3,1 -3,2 0,0 -6,1 90 0,0 235 1,9 7,4 --- ---
06.02.2021 4,8 4,4 2,7 2,8 5,4 -0,3 96 3,7 368 1,6 8,2 --- ---
05.02.2021 4,9 4,5 3,3 3,5 5,4 0,8 99 5,7 339 0,2 1,7 --- ---
04.02.2021 5,0 5,5 6,2 6,6 10,6 2,3 86 0,6 1315 0,8 6,3 --- 4,4
03.02.2021 4,5 5,3 9,0 9,3 11,9 7,6 94 5,6 588 1,1 9,5 --- 1,4
02.02.2021 3,8 3,8 5,3 5,5 8,9 3,0 98 3,0 414 0,6 3,1 --- 0,1
01.02.2021 3,5 2,7 1,7 1,8 3,2 0,4 96 2,2 433 0,7 3,5 --- 0,2
31.01.2021 3,7 2,4 -0,8 -0,5 3,4 -4,8 81 0,0 1465 0,9 5,9 --- 4,5
30.01.2021 4,1 3,9 2,5 2,6 8,2 -0,5 81 0,6 743 1,8 7,7 --- 2,2
29.01.2021 3,9 3,8 5,0 5,2 10,3 1,8 93 9,2 536 0,9 7,8 --- 1,6
28.01.2021 3,6 3,2 2,8 2,9 4,2 2,0 99 14,5 175 0,5 3,9 --- ---
27.01.2021 3,6 2,6 0,6 0,8 2,2 -1,0 96 1,4 363 0,8 5,0 --- 0,1
26.01.2021 3,7 2,8 1,5 1,7 4,2 -0,8 92 0,9 640 0,9 5,9 --- 1,4
25.01.2021 3,9 2,8 -0,7 -0,5 2,1 -2,3 96 1,1 715 0,3 2,2 --- 1,6
24.01.2021 4,2 3,4 1,1 1,2 4,0 -0,5 95 6,5 652 0,6 5,3 --- 1,2
23.01.2021 4,4 3,8 1,9 2,2 4,3 -0,2 97 0,2 386 0,5 3,0 --- 0,2
22.01.2021 4,5 4,7 5,0 5,2 10,1 0,8 91 4,8 500 1,3 12,2 --- 0,4
21.01.2021 3,9 4,0 7,5 7,8 9,7 4,9 73 4,7 554 2,0 10,9 --- 1,8
20.01.2021 3,6 3,1 3,5 4,2 8,7 -0,5 80 0,0 855 0,7 6,1 --- 2,8
19.01.2021 3,5 3,0 3,0 3,2 5,0 1,6 93 3,8 187 1,6 7,5 --- ---
18.01.2021 3,3 2,6 1,7 2,0 3,5 -1,0 95 0,1 397 0,9 5,5 --- 0,6
17.01.2021 3,2 2,2 -1,2 -1,1 1,0 -2,5 94 1,6 321 0,4 2,3 --- ---
16.01.2021 3,4 2,2 -1,1 -1,0 0,4 -2,0 73 0,0 431 0,7 5,3 --- ---
15.01.2021 3,5 2,4 0,0 0,2 1,5 -2,0 81 0,0 322 0,5 3,6 --- ---
14.01.2021 3,6 2,6 1,1 1,3 3,1 0,0 74 0,0 495 0,8 6,7 --- 0,6
13.01.2021 3,7 2,5 1,0 1,5 4,6 -2,0 87 0,1 643 1,0 5,9 --- 1,7
12.01.2021 3,8 2,8 1,7 2,0 4,1 -1,1 93 2,0 200 1,0 5,8 --- ---
11.01.2021 4,0 2,5 -1,2 -1,0 1,4 -3,2 88 0,0 813 1,1 6,7 --- 2,9
10.01.2021 4,2 3,2 -0,1 0,2 2,0 -2,4 90 0,0 608 0,3 1,9 --- 1,5
09.01.2021 4,5 3,4 0,0 0,3 2,6 -1,3 91 0,0 479 0,2 2,7 --- 1,1
08.01.2021 4,6 3,6 0,9 1,0 2,5 0,3 97 2,8 439 0,5 4,0 --- 0,4
07.01.2021 4,7 3,7 1,0 1,1 2,7 0,4 91 0,4 522 0,8 4,6 --- 1,6
06.01.2021 4,7 3,9 2,0 2,2 3,1 1,1 90 0,2 255 0,5 3,2 --- ---
05.01.2021 4,7 3,6 1,4 1,6 2,1 1,0 93 0,4 152 0,9 3,9 --- ---
04.01.2021 4,8 3,7 1,0 1,2 1,6 0,6 92 0,6 112 0,8 3,6 --- ---
03.01.2021 5,0 4,0 1,8 2,0 2,8 0,7 84 0,1 267 1,0 6,2 --- ---
02.01.2021 5,2 4,3 1,4 1,6 2,8 0,4 95 0,0 446 0,3 2,1 --- 0,1
01.01.2021 5,2 4,3 1,5 1,6 2,7 0,6 98 2,4 271 0,2 1,4 --- ---

Mittelwerte (Temperaturen, Strahlung, rel. Feuchte, Wind), Summe (Regen) für 2021
11,5 11,6 10,3 10,6 80 568 3.140 0,7

Landesbetrieb Landwirtschaft Hessen 2009

      Werte bis 5 Uhr SommerzeitCSV-Datei: Kirchhain21.csvDiagramm: Kirchhain